Time;durP1;ratioP1;P1;durP2;ratioP2;P2;SDS_P1;SDS_P2;PMS_P1;PMS_P2;Temp;Humidity;BMP_temperature;BMP_pressure;BME280_temperature;BME280_humidity;BME280_pressure;Samples;Min_cycle;Max_cycle;Signal;HPM_P1;HPM_P2
2022/09/08 00:00:56;;;;;;;0.00;0.00;;;16.80;99.90;;;;;;5073981;28;20044;-79
2022/09/08 00:03:24;;;;;;;0.10;0.10;;;16.90;99.90;;;;;;5074083;28;20105;-79
2022/09/08 00:05:58;;;;;;;0.05;0.03;;;16.90;99.90;;;;;;5074080;28;20443;-79
2022/09/08 00:08:24;;;;;;;0.08;0.08;;;16.80;99.90;;;;;;5073896;28;20048;-79
2022/09/08 00:10:53;;;;;;;0.00;0.00;;;16.80;99.90;;;;;;5057380;28;20109;-79
2022/09/08 00:13:20;;;;;;;0.00;0.00;;;16.80;99.90;;;;;;5056865;28;20404;-79
2022/09/08 00:15:46;;;;;;;0.00;0.00;;;16.80;99.90;;;;;;5073720;28;20048;-79
2022/09/08 00:18:11;;;;;;;0.10;0.10;;;16.80;99.90;;;;;;5073614;28;20044;-79
2022/09/08 00:20:37;;;;;;;0.00;0.00;;;16.80;99.90;;;;;;5057103;28;20135;-79
2022/09/08 00:23:02;;;;;;;0.00;0.00;;;16.80;99.90;;;;;;5057133;28;20075;-79
2022/09/08 00:25:28;;;;;;;0.00;0.00;;;16.70;99.90;;;;;;5073640;28;20506;-79
2022/09/08 00:27:54;;;;;;;0.00;0.00;;;16.70;99.90;;;;;;5073668;28;20414;-79
2022/09/08 00:30:19;;;;;;;0.10;0.00;;;16.70;99.90;;;;;;5057012;28;20048;-79
2022/09/08 00:32:45;;;;;;;0.10;0.10;;;16.70;99.90;;;;;;5073584;28;20040;-79
2022/09/08 00:35:14;;;;;;;0.00;0.00;;;16.70;99.90;;;;;;5073627;28;20133;-79
2022/09/08 00:37:41;;;;;;;0.05;0.00;;;16.70;99.90;;;;;;5073312;28;20485;-79
2022/09/08 00:40:07;;;;;;;0.00;0.00;;;16.70;99.90;;;;;;5056802;28;20091;-79
2022/09/08 00:42:34;;;;;;;0.00;0.00;;;16.70;99.90;;;;;;5073023;28;20070;-79
2022/09/08 00:44:59;;;;;;;0.10;0.00;;;16.70;99.90;;;;;;5073899;28;20048;-79
2022/09/08 00:47:38;;;;;;;0.08;0.08;;;16.80;99.90;;;;;;5056637;28;20056;-79
2022/09/08 00:50:16;;;;;;;0.00;0.00;;;16.80;99.90;;;;;;5056927;28;20106;-79
2022/09/08 00:53:04;;;;;;;0.00;0.00;;;16.80;99.90;;;;;;5056189;28;20056;-79
2022/09/08 00:55:32;;;;;;;0.05;0.00;;;16.80;99.90;;;;;;5073155;28;20040;-79
2022/09/08 00:57:58;;;;;;;0.20;0.20;;;16.80;99.90;;;;;;5056430;28;20095;-80
2022/09/08 01:00:24;;;;;;;0.00;0.00;;;16.90;99.90;;;;;;5056505;28;20083;-79
2022/09/08 01:02:53;;;;;;;0.10;0.10;;;16.90;99.90;;;;;;5073048;28;20550;-79
2022/09/08 01:05:22;;;;;;;0.00;0.00;;;16.90;99.90;;;;;;5073082;28;20045;-79
2022/09/08 01:13:44;;;;;;;0.10;0.00;;;16.90;99.90;;;;;;5072652;28;20049;-79
2022/09/08 01:16:11;;;;;;;0.10;0.00;;;17.00;99.90;;;;;;5056246;28;20047;-79
2022/09/08 01:18:38;;;;;;;0.00;0.00;;;16.90;99.90;;;;;;5072837;28;20041;-79
2022/09/08 01:21:03;;;;;;;0.08;0.08;;;17.00;99.90;;;;;;5072790;28;20547;-79
2022/09/08 01:24:34;;;;;;;0.45;0.13;;;17.00;99.90;;;;;;5106621;28;20131;-79
2022/09/08 01:27:12;;;;;;;0.00;0.00;;;17.00;99.90;;;;;;4976405;28;20089;-79
2022/09/08 01:29:42;;;;;;;0.00;0.00;;;17.00;99.90;;;;;;4976527;28;20077;-79
2022/09/08 01:32:09;;;;;;;0.00;0.00;;;17.00;99.90;;;;;;4960534;28;20084;-79
2022/09/08 01:34:40;;;;;;;0.13;0.13;;;17.00;99.90;;;;;;4960068;28;20042;-79
2022/09/08 01:37:06;;;;;;;0.15;0.15;;;17.00;99.90;;;;;;4976512;28;20194;-79
2022/09/08 01:39:31;;;;;;;0.00;0.00;;;17.10;99.90;;;;;;4975944;28;20510;-79
2022/09/08 01:41:57;;;;;;;0.03;0.00;;;17.00;99.90;;;;;;4976043;28;20454;-79
2022/09/08 01:44:23;;;;;;;0.00;0.00;;;17.00;99.90;;;;;;4976080;28;20054;-79
2022/09/08 01:46:49;;;;;;;0.00;0.00;;;17.00;99.90;;;;;;4960524;28;20050;-79
2022/09/08 01:49:14;;;;;;;0.00;0.00;;;17.00;99.90;;;;;;4976124;28;20062;-79
2022/09/08 01:51:42;;;;;;;0.00;0.00;;;17.10;99.90;;;;;;4960133;28;20214;-79
2022/09/08 01:54:08;;;;;;;0.00;0.00;;;17.10;99.90;;;;;;4975843;28;20133;-79
2022/09/08 01:56:35;;;;;;;0.20;0.10;;;17.20;99.90;;;;;;4976225;28;20090;-79
2022/09/08 01:59:01;;;;;;;0.08;0.03;;;17.10;99.90;;;;;;4976257;28;20069;-79
2022/09/08 02:01:27;;;;;;;0.00;0.00;;;17.10;99.90;;;;;;4963041;28;20593;-79
2022/09/08 02:03:53;;;;;;;0.10;0.10;;;17.10;99.90;;;;;;5055745;28;20056;-79
2022/09/08 02:06:19;;;;;;;0.00;0.00;;;17.10;99.90;;;;;;5056255;28;20056;-79
2022/09/08 02:08:49;;;;;;;0.40;0.20;;;17.10;99.90;;;;;;5072303;28;20480;-79
2022/09/08 02:11:16;;;;;;;0.05;0.05;;;17.10;99.90;;;;;;5056237;28;20052;-79
2022/09/08 02:13:41;;;;;;;0.22;0.20;;;17.10;99.90;;;;;;5072171;28;20041;-79
2022/09/08 02:16:11;;;;;;;0.00;0.00;;;17.10;99.90;;;;;;5074929;28;20090;-79
2022/09/08 02:18:38;;;;;;;0.10;0.10;;;17.10;99.90;;;;;;5076456;28;20041;-79
2022/09/08 02:21:13;;;;;;;0.00;0.00;;;17.10;99.90;;;;;;5059591;28;20059;-79
2022/09/08 02:23:42;;;;;;;0.00;0.00;;;17.10;99.90;;;;;;5076202;28;20079;-79
2022/09/08 02:26:20;;;;;;;0.00;0.00;;;17.10;99.90;;;;;;5092167;28;20061;-79
2022/09/08 02:28:46;;;;;;;0.22;0.22;;;17.10;99.90;;;;;;5075822;28;20055;-79
2022/09/08 02:31:12;;;;;;;0.05;0.00;;;17.20;99.90;;;;;;5075871;28;20109;-79
2022/09/08 02:33:39;;;;;;;0.35;0.32;;;17.10;99.90;;;;;;5059425;28;20040;-79
2022/09/08 02:36:05;;;;;;;0.20;0.13;;;17.20;99.90;;;;;;5059350;28;20048;-79
2022/09/08 02:38:31;;;;;;;0.00;0.00;;;17.10;99.90;;;;;;5075813;28;20051;-79
2022/09/08 02:40:57;;;;;;;0.00;0.00;;;17.20;99.90;;;;;;5075685;28;20048;-79
2022/09/08 02:43:23;;;;;;;0.03;0.00;;;17.10;99.90;;;;;;5075688;28;20041;-79
2022/09/08 02:45:49;;;;;;;0.00;0.00;;;17.20;99.90;;;;;;5075881;28;20048;-79
2022/09/08 02:48:15;;;;;;;0.00;0.00;;;17.20;99.90;;;;;;5059024;28;20396;-79
2022/09/08 02:50:41;;;;;;;0.70;0.10;;;17.20;99.90;;;;;;5075661;28;20094;-79
2022/09/08 02:53:08;;;;;;;0.00;0.00;;;17.10;99.90;;;;;;5075345;28;20126;-79
2022/09/08 02:55:43;;;;;;;0.20;0.20;;;17.10;99.90;;;;;;5058591;28;20040;-79
2022/09/08 02:58:10;;;;;;;0.00;0.00;;;17.20;99.90;;;;;;5075664;28;20139;-80
2022/09/08 03:00:38;;;;;;;0.30;0.30;;;17.10;99.90;;;;;;5058619;28;20048;-79
2022/09/08 03:03:03;;;;;;;0.00;0.00;;;17.20;99.90;;;;;;5058631;28;20044;-80
2022/09/08 03:05:30;;;;;;;0.00;0.00;;;17.10;99.90;;;;;;5075313;28;20115;-80
2022/09/08 03:07:57;;;;;;;0.00;0.00;;;17.20;99.90;;;;;;5058592;28;20106;-80
2022/09/08 03:10:23;;;;;;;0.00;0.00;;;17.20;99.90;;;;;;5058581;28;20044;-79
2022/09/08 03:12:53;;;;;;;0.00;0.00;;;17.10;99.90;;;;;;5075469;28;20396;-80
2022/09/08 03:15:21;;;;;;;0.00;0.00;;;17.20;99.90;;;;;;5058785;28;20063;-80
2022/09/08 03:17:47;;;;;;;0.00;0.00;;;17.10;99.90;;;;;;5075163;28;20041;-79
2022/09/08 03:20:14;;;;;;;0.20;0.15;;;17.10;99.90;;;;;;5108965;28;20094;-79
2022/09/08 03:22:39;;;;;;;0.00;0.00;;;17.10;99.90;;;;;;5074981;28;20048;-79
2022/09/08 03:25:06;;;;;;;0.00;0.00;;;17.10;99.90;;;;;;5074618;28;20166;-79
2022/09/08 03:27:32;;;;;;;0.20;0.20;;;17.10;99.90;;;;;;5073814;28;20063;-79
2022/09/08 03:29:57;;;;;;;0.00;0.00;;;17.10;99.90;;;;;;5075419;28;20045;-79
2022/09/08 03:32:23;;;;;;;1.55;0.52;;;17.10;99.90;;;;;;5057970;28;20094;-79
2022/09/08 03:34:49;;;;;;;0.08;0.00;;;17.10;99.90;;;;;;5074576;28;20040;-79
2022/09/08 03:37:15;;;;;;;3.22;0.28;;;17.10;99.90;;;;;;5057942;28;20447;-79
2022/09/08 03:39:41;;;;;;;0.00;0.00;;;17.00;99.90;;;;;;5074235;28;20070;-80
2022/09/08 03:42:07;;;;;;;0.00;0.00;;;17.00;99.90;;;;;;5058002;28;20532;-79
2022/09/08 03:44:33;;;;;;;0.00;0.00;;;17.00;99.90;;;;;;5058410;28;20073;-79
2022/09/08 03:46:59;;;;;;;0.00;0.00;;;16.90;99.90;;;;;;5075519;28;20052;-79
2022/09/08 03:49:25;;;;;;;0.65;0.10;;;16.90;99.90;;;;;;5074581;28;20041;-80
2022/09/08 03:51:51;;;;;;;0.10;0.00;;;16.90;99.90;;;;;;5074148;28;20155;-80
2022/09/08 03:57:01;;;;;;;0.00;0.00;;;16.80;99.90;;;;;;5074845;28;20052;-79
2022/09/08 03:59:28;;;;;;;0.32;0.32;;;16.80;99.90;;;;;;5074288;28;20049;-80
2022/09/08 04:01:54;;;;;;;0.05;0.05;;;16.80;99.90;;;;;;5073979;28;20483;-80
2022/09/08 04:04:23;;;;;;;0.00;0.00;;;16.80;99.90;;;;;;5074252;28;20059;-80
2022/09/08 04:06:49;;;;;;;0.00;0.00;;;16.80;99.90;;;;;;5057614;28;20111;-80
2022/09/08 04:09:16;;;;;;;0.00;0.00;;;16.80;99.90;;;;;;5057342;28;20064;-79
2022/09/08 04:11:42;;;;;;;0.00;0.00;;;16.70;99.90;;;;;;5074120;28;20090;-80
2022/09/08 04:14:08;;;;;;;0.00;0.00;;;16.80;99.90;;;;;;5057650;28;20052;-80
2022/09/08 04:16:35;;;;;;;0.00;0.00;;;16.90;99.90;;;;;;5073948;28;20098;-79
2022/09/08 04:19:00;;;;;;;0.08;0.08;;;16.80;99.90;;;;;;5057377;28;20048;-79
2022/09/08 04:21:26;;;;;;;0.03;0.03;;;16.80;99.90;;;;;;5073853;28;20094;-79
2022/09/08 04:23:52;;;;;;;0.10;0.10;;;16.80;99.90;;;;;;5074099;28;20063;-79
2022/09/08 04:26:18;;;;;;;0.20;0.03;;;16.80;99.90;;;;;;5074420;28;20043;-80
2022/09/08 04:28:44;;;;;;;0.00;0.00;;;16.80;99.90;;;;;;5074873;28;20511;-80
2022/09/08 04:31:13;;;;;;;0.00;0.00;;;16.80;99.90;;;;;;5073784;28;20079;-80
2022/09/08 04:33:39;;;;;;;0.05;0.00;;;16.80;99.90;;;;;;5057174;28;20057;-80
2022/09/08 04:36:13;;;;;;;0.57;0.10;;;16.80;99.90;;;;;;5073287;28;20097;-80
2022/09/08 04:38:40;;;;;;;0.25;0.20;;;16.70;99.90;;;;;;5056948;28;20075;-80
2022/09/08 04:41:08;;;;;;;0.00;0.00;;;16.70;99.90;;;;;;5056776;28;20477;-80
2022/09/08 04:43:35;;;;;;;0.28;0.28;;;16.70;99.90;;;;;;5056975;28;20056;-80
2022/09/08 04:46:02;;;;;;;0.00;0.00;;;16.70;99.90;;;;;;5056785;28;20052;-80
2022/09/08 04:48:32;;;;;;;0.25;0.10;;;16.70;99.90;;;;;;5073878;28;20101;-80
2022/09/08 04:50:59;;;;;;;0.20;0.17;;;16.70;99.90;;;;;;5073259;28;20047;-79
2022/09/08 04:53:27;;;;;;;0.10;0.10;;;16.70;99.90;;;;;;5056469;28;20056;-80
2022/09/08 04:55:53;;;;;;;0.00;0.00;;;16.70;99.90;;;;;;5073052;28;20496;-80
2022/09/08 04:58:19;;;;;;;0.47;0.30;;;16.70;99.90;;;;;;5056766;28;20060;-80
2022/09/08 05:00:45;;;;;;;0.05;0.05;;;16.80;99.90;;;;;;5073210;28;20048;-80
2022/09/08 05:03:11;;;;;;;0.43;0.43;;;16.80;99.90;;;;;;5073219;28;20113;-79
2022/09/08 05:05:38;;;;;;;0.30;0.05;;;16.80;99.90;;;;;;5056647;28;20080;-80
2022/09/08 05:08:04;;;;;;;0.00;0.00;;;16.80;99.90;;;;;;5056371;28;20048;-80
2022/09/08 05:10:32;;;;;;;0.05;0.05;;;16.80;99.90;;;;;;5073366;28;20048;-80
2022/09/08 05:12:58;;;;;;;0.03;0.00;;;16.70;99.90;;;;;;5073052;28;20384;-79
2022/09/08 05:15:24;;;;;;;0.03;0.03;;;16.80;99.90;;;;;;5056337;28;20504;-80
2022/09/08 05:17:50;;;;;;;0.32;0.03;;;16.80;99.90;;;;;;5056622;28;20080;-80
2022/09/08 05:20:16;;;;;;;0.35;0.08;;;16.80;99.90;;;;;;5073777;28;20087;-80
2022/09/08 05:22:42;;;;;;;0.00;0.00;;;16.80;99.90;;;;;;5073065;28;20066;-80
2022/09/08 05:25:08;;;;;;;0.00;0.00;;;16.90;99.90;;;;;;5106822;28;20048;-80
2022/09/08 05:27:34;;;;;;;1.02;0.30;;;16.90;99.90;;;;;;5056279;28;20048;-80
2022/09/08 05:30:00;;;;;;;0.38;0.20;;;16.90;99.90;;;;;;5056131;28;20052;-80
2022/09/08 05:32:25;;;;;;;0.00;0.00;;;16.90;99.90;;;;;;5073085;28;20396;-80
2022/09/08 05:34:51;;;;;;;0.08;0.08;;;16.90;99.90;;;;;;5056344;28;20127;-80
2022/09/08 05:37:17;;;;;;;0.08;0.08;;;17.00;99.90;;;;;;5073033;28;20131;-80
2022/09/08 05:39:42;;;;;;;0.10;0.10;;;17.00;99.90;;;;;;5072553;28;20048;-80
2022/09/08 05:42:08;;;;;;;0.10;0.03;;;17.00;99.90;;;;;;5072698;28;20057;-80
2022/09/08 05:44:34;;;;;;;0.00;0.00;;;17.00;99.90;;;;;;5072497;28;20055;-78
2022/09/08 05:46:59;;;;;;;0.20;0.20;;;17.00;99.90;;;;;;5072663;28;20091;-78
2022/09/08 05:49:25;;;;;;;0.45;0.45;;;16.90;99.90;;;;;;5073093;28;20044;-80
2022/09/08 05:51:52;;;;;;;6.25;1.13;;;16.90;99.90;;;;;;5059707;28;20052;-78
2022/09/08 05:54:22;;;;;;;0.90;0.45;;;16.80;99.90;;;;;;5059946;28;20044;-79
2022/09/08 05:56:48;;;;;;;0.10;0.05;;;16.80;99.90;;;;;;5059949;28;20036;-78
2022/09/08 05:59:14;;;;;;;0.10;0.10;;;16.70;99.90;;;;;;5060044;28;20102;-78
2022/09/08 06:01:40;;;;;;;0.03;0.03;;;16.80;99.90;;;;;;5076502;28;20048;-78
2022/09/08 06:04:06;;;;;;;0.60;0.22;;;16.70;99.90;;;;;;5076472;28;20148;-79
2022/09/08 06:06:33;;;;;;;0.15;0.15;;;16.80;99.90;;;;;;5059677;28;20053;-78
2022/09/08 06:08:59;;;;;;;0.00;0.00;;;16.80;99.90;;;;;;5076105;28;20052;-78
2022/09/08 06:11:26;;;;;;;0.00;0.00;;;16.80;99.90;;;;;;5076058;28;20551;-79
2022/09/08 06:13:53;;;;;;;0.00;0.00;;;16.80;99.90;;;;;;5076200;28;20539;-79
2022/09/08 06:16:19;;;;;;;0.10;0.10;;;16.90;99.90;;;;;;5059724;28;20203;-79
2022/09/08 06:18:45;;;;;;;0.00;0.00;;;16.90;99.90;;;;;;5060059;28;20434;-79
2022/09/08 06:21:13;;;;;;;2.17;0.20;;;16.90;99.90;;;;;;5059505;28;20048;-79
2022/09/08 06:23:40;;;;;;;0.08;0.08;;;16.90;99.90;;;;;;5076168;28;20049;-79
2022/09/08 06:26:43;;;;;;;0.00;0.00;;;17.00;99.90;;;;;;5059455;28;20491;-79
2022/09/08 06:29:29;;;;;;;0.00;0.00;;;17.00;99.90;;;;;;5076155;28;20400;-79
2022/09/08 06:32:27;;;;;;;0.00;0.00;;;17.00;99.90;;;;;;5075828;28;20048;-79
2022/09/08 06:35:10;;;;;;;0.00;0.00;;;17.00;99.90;;;;;;5072426;28;20060;-78
2022/09/08 06:37:39;;;;;;;0.00;0.00;;;17.00;99.90;;;;;;5059367;28;20056;-78
2022/09/08 06:40:09;;;;;;;0.00;0.00;;;17.10;99.90;;;;;;5075770;28;20084;-79
2022/09/08 06:42:39;;;;;;;0.20;0.10;;;17.00;99.90;;;;;;5075809;28;20044;-78
2022/09/08 06:45:13;;;;;;;0.00;0.00;;;17.00;99.90;;;;;;5058969;28;20088;-78
2022/09/08 06:47:44;;;;;;;0.30;0.30;;;17.00;99.90;;;;;;5059360;28;20040;-79
2022/09/08 06:50:14;;;;;;;0.03;0.03;;;17.10;99.90;;;;;;5059453;28;20407;-79
2022/09/08 06:52:46;;;;;;;0.00;0.00;;;17.00;99.90;;;;;;5058872;28;20135;-79
2022/09/08 06:55:24;;;;;;;1.65;0.52;;;17.00;99.90;;;;;;5058752;28;20439;-79
2022/09/08 06:58:14;;;;;;;0.15;0.10;;;17.00;99.90;;;;;;5075757;28;20139;-79
2022/09/08 07:00:58;;;;;;;0.17;0.08;;;17.00;99.90;;;;;;5075374;28;20484;-79
2022/09/08 07:03:43;;;;;;;0.28;0.22;;;17.00;99.90;;;;;;5058966;28;20474;-80
2022/09/08 07:06:09;;;;;;;0.22;0.13;;;17.00;99.90;;;;;;5075509;28;20049;-79
2022/09/08 07:09:09;;;;;;;0.00;0.00;;;17.00;99.90;;;;;;5075169;28;20044;-80
2022/09/08 07:11:43;;;;;;;0.22;0.22;;;16.90;99.90;;;;;;5075506;28;20121;-80
2022/09/08 07:14:50;;;;;;;0.20;0.20;;;17.00;99.90;;;;;;5058196;28;20090;-80
2022/09/08 07:17:43;;;;;;;0.22;0.22;;;16.90;99.90;;;;;;5075683;28;20373;-79
2022/09/08 07:20:11;;;;;;;0.00;0.00;;;17.00;99.90;;;;;;5058657;28;20435;-79
2022/09/08 07:22:59;;;;;;;0.00;0.00;;;17.00;99.90;;;;;;5075182;28;20112;-79
2022/09/08 07:25:31;;;;;;;0.17;0.17;;;16.90;99.90;;;;;;5075745;28;20084;-79
2022/09/08 07:28:12;;;;;;;0.00;0.00;;;17.00;99.90;;;;;;5075166;28;20052;-79
2022/09/08 07:30:39;;;;;;;0.00;0.00;;;16.90;99.90;;;;;;5074759;28;20477;-79
2022/09/08 07:33:29;;;;;;;0.20;0.10;;;17.00;99.90;;;;;;5058018;28;20085;-79
2022/09/08 07:36:20;;;;;;;0.00;0.00;;;17.00;99.90;;;;;;5074883;28;20094;-79
2022/09/08 07:38:57;;;;;;;0.13;0.13;;;17.00;99.90;;;;;;5057769;28;20571;-78
2022/09/08 07:41:28;;;;;;;1.67;0.75;;;17.00;99.90;;;;;;5075037;28;20618;-79
2022/09/08 07:43:59;;;;;;;2.35;0.35;;;17.10;99.90;;;;;;5058597;28;20052;-78
2022/09/08 07:46:31;;;;;;;0.08;0.08;;;17.10;99.90;;;;;;5074814;28;20032;-79
2022/09/08 07:49:28;;;;;;;0.20;0.20;;;17.00;99.90;;;;;;5074741;28;20051;-78
2022/09/08 07:52:15;;;;;;;0.00;0.00;;;17.10;99.90;;;;;;5074762;28;20049;-79
2022/09/08 07:55:11;;;;;;;0.00;0.00;;;17.10;99.90;;;;;;5074811;28;20123;-79
2022/09/08 07:57:58;;;;;;;0.30;0.30;;;17.10;99.90;;;;;;5074669;28;20052;-79
2022/09/08 08:01:05;;;;;;;3.20;0.40;;;17.10;99.90;;;;;;5074186;28;20066;-79
2022/09/08 08:04:01;;;;;;;0.30;0.30;;;17.10;99.90;;;;;;5020088;28;20057;-78
2022/09/08 08:06:38;;;;;;;1.75;0.93;;;17.10;99.90;;;;;;5020722;28;20107;-79
2022/09/08 08:09:28;;;;;;;0.17;0.15;;;17.00;99.90;;;;;;5036372;28;20516;-79
2022/09/08 08:12:18;;;;;;;0.10;0.10;;;17.10;99.90;;;;;;5019911;28;20139;-79
2022/09/08 08:15:20;;;;;;;0.10;0.10;;;17.10;99.90;;;;;;5036572;28;20515;-79
2022/09/08 08:18:13;;;;;;;0.10;0.00;;;17.10;99.90;;;;;;5035932;28;20409;-79
2022/09/08 08:20:56;;;;;;;0.10;0.10;;;17.10;99.90;;;;;;5019714;28;20069;-79
2022/09/08 08:23:34;;;;;;;0.38;0.13;;;17.10;99.90;;;;;;5036010;28;20045;-79
2022/09/08 08:26:22;;;;;;;0.00;0.00;;;17.10;99.90;;;;;;5019686;28;20134;-79
2022/09/08 08:29:00;;;;;;;0.22;0.22;;;17.10;99.90;;;;;;5036104;28;20536;-79
2022/09/08 08:31:46;;;;;;;0.30;0.05;;;17.10;99.90;;;;;;5053237;28;20060;-79
2022/09/08 08:34:22;;;;;;;1.30;0.55;;;17.10;99.90;;;;;;5035980;28;20048;-79
2022/09/08 08:36:50;;;;;;;0.00;0.00;;;17.10;99.90;;;;;;5019618;28;20048;-78
2022/09/08 08:39:21;;;;;;;0.20;0.20;;;17.10;99.90;;;;;;5021555;28;20508;-79
2022/09/08 08:41:46;;;;;;;11.10;0.65;;;17.10;99.90;;;;;;5073487;28;20041;-79
2022/09/08 08:44:27;;;;;;;0.60;0.20;;;17.10;99.90;;;;;;5073569;28;20052;-79
2022/09/08 08:47:05;;;;;;;0.00;0.00;;;17.10;99.90;;;;;;5057269;28;20041;-79
2022/09/08 08:49:42;;;;;;;0.00;0.00;;;17.20;99.90;;;;;;5073740;28;20094;-79
2022/09/08 08:52:31;;;;;;;0.00;0.00;;;17.10;99.90;;;;;;5073166;28;20056;-79
2022/09/08 08:55:25;;;;;;;0.22;0.00;;;17.20;99.90;;;;;;5073397;28;20121;-79
2022/09/08 08:57:55;;;;;;;0.20;0.10;;;17.20;99.90;;;;;;5057766;28;20064;-79
2022/09/08 09:00:51;;;;;;;0.10;0.10;;;17.20;99.90;;;;;;5056725;28;20642;-80
2022/09/08 09:03:35;;;;;;;;;;;17.20;99.90;;;;;;5074002;28;20056;-80
2022/09/08 09:06:42;;;;;;;0.00;0.00;;;17.30;99.90;;;;;;5072990;28;20376;-80
2022/09/08 09:09:34;;;;;;;0.10;0.10;;;17.30;99.90;;;;;;5073171;28;20143;-80
2022/09/08 09:12:12;;;;;;;0.00;0.00;;;17.30;99.90;;;;;;5073267;28;20049;-80
2022/09/08 09:14:50;;;;;;;10.25;0.20;;;17.30;99.90;;;;;;5056043;28;20429;-79
2022/09/08 09:17:31;;;;;;;0.00;0.00;;;17.30;99.90;;;;;;5056256;28;20048;-80
2022/09/08 09:20:15;;;;;;;0.00;0.00;;;17.30;99.90;;;;;;5073461;28;20044;-80
2022/09/08 09:23:00;;;;;;;0.13;0.10;;;17.20;99.90;;;;;;5073012;28;20048;-80
2022/09/08 09:25:34;;;;;;;0.15;0.00;;;17.20;99.90;;;;;;5055426;28;20044;-80
2022/09/08 09:28:37;;;;;;;0.00;0.00;;;17.20;99.90;;;;;;5056482;28;20059;-80
2022/09/08 09:31:39;;;;;;;0.00;0.00;;;17.20;99.90;;;;;;5056268;28;20044;-79
2022/09/08 09:34:31;;;;;;;0.00;0.00;;;17.20;99.90;;;;;;5056440;28;20036;-80
2022/09/08 09:37:29;;;;;;;0.10;0.00;;;17.20;99.90;;;;;;5050529;28;20056;-80
2022/09/08 09:40:11;;;;;;;0.10;0.10;;;17.10;99.90;;;;;;5056266;28;20052;-81
2022/09/08 09:43:24;;;;;;;0.00;0.00;;;17.10;99.90;;;;;;5106690;28;20151;-81
2022/09/08 09:46:34;;;;;;;0.43;0.00;;;17.10;99.90;;;;;;5018444;28;20528;-81
2022/09/08 09:49:22;;;;;;;0.00;0.00;;;17.10;99.90;;;;;;5035285;28;20049;-80
2022/09/08 09:52:16;;;;;;;0.22;0.22;;;17.10;99.90;;;;;;5018002;28;20049;-80
2022/09/08 09:54:41;;;;;;;0.00;0.00;;;17.10;99.90;;;;;;4956719;28;20396;-80
2022/09/08 09:57:41;;;;;;;0.00;0.00;;;17.10;99.90;;;;;;4956811;28;20145;-80
2022/09/08 10:00:21;;;;;;;0.43;0.38;;;17.10;99.90;;;;;;4956829;28;20454;-79
2022/09/08 10:03:33;;;;;;;0.00;0.00;;;17.10;99.90;;;;;;4956957;28;20149;-79
2022/09/08 10:06:07;;;;;;;0.00;0.00;;;17.10;99.90;;;;;;4957028;28;20066;-79
2022/09/08 10:08:42;;;;;;;0.00;0.00;;;17.10;99.90;;;;;;4972987;28;20051;-79
2022/09/08 10:11:22;;;;;;;0.00;0.00;;;17.10;99.90;;;;;;4956721;28;20411;-79
2022/09/08 10:14:25;;;;;;;0.20;0.17;;;17.10;99.90;;;;;;4956932;28;20079;-80
2022/09/08 10:17:21;;;;;;;0.17;0.17;;;17.10;99.90;;;;;;4956713;28;20074;-79
2022/09/08 10:19:46;;;;;;;0.00;0.00;;;17.10;99.90;;;;;;4985822;28;20054;-79
2022/09/08 10:22:46;;;;;;;0.00;0.00;;;17.10;99.90;;;;;;4979172;28;20504;-78
2022/09/08 10:25:36;;;;;;;0.00;0.00;;;17.10;99.90;;;;;;4995619;28;20064;-79
2022/09/08 10:28:14;;;;;;;0.08;0.05;;;17.10;99.90;;;;;;4995457;28;20042;-79
2022/09/08 10:31:04;;;;;;;0.00;0.00;;;17.10;99.90;;;;;;5001513;28;20041;-79
2022/09/08 10:33:58;;;;;;;0.00;0.00;;;17.10;99.90;;;;;;5072730;28;20048;-79
2022/09/08 10:36:55;;;;;;;0.00;0.00;;;17.00;99.90;;;;;;5057346;28;20037;-79
2022/09/08 10:39:37;;;;;;;0.00;0.00;;;17.00;99.90;;;;;;5059683;28;20040;-79
2022/09/08 10:42:16;;;;;;;0.00;0.00;;;17.10;99.90;;;;;;5076105;28;20094;-79
2022/09/08 10:44:49;;;;;;;0.00;0.00;;;17.10;99.90;;;;;;5059320;28;20040;-79
2022/09/08 10:47:48;;;;;;;0.00;0.00;;;17.10;99.90;;;;;;5076149;28;20369;-79
2022/09/08 10:50:21;;;;;;;0.10;0.10;;;17.10;99.90;;;;;;5076129;28;20040;-79
2022/09/08 10:53:03;;;;;;;0.00;0.00;;;17.10;99.90;;;;;;5075539;28;20048;-79
2022/09/08 10:55:50;;;;;;;0.00;0.00;;;17.10;99.90;;;;;;5075765;28;20049;-79
2022/09/08 10:58:49;;;;;;;0.20;0.10;;;17.10;99.90;;;;;;5075971;28;20572;-79
2022/09/08 11:01:40;;;;;;;0.00;0.00;;;17.00;99.90;;;;;;5075579;28;20083;-79
2022/09/08 11:04:46;;;;;;;0.00;0.00;;;17.00;99.90;;;;;;5059402;28;20090;-79
2022/09/08 11:07:36;;;;;;;0.00;0.00;;;17.10;99.90;;;;;;5059034;28;20052;-79
2022/09/08 11:10:26;;;;;;;0.00;0.00;;;17.10;99.90;;;;;;5075496;28;20545;-79
2022/09/08 11:13:21;;;;;;;0.00;0.00;;;17.10;99.90;;;;;;5075600;28;20044;-79
2022/09/08 11:15:49;;;;;;;0.00;0.00;;;17.10;99.90;;;;;;5020807;28;20056;-79
2022/09/08 11:18:36;;;;;;;0.00;0.00;;;17.10;99.90;;;;;;5021271;28;20532;-79
2022/09/08 11:21:28;;;;;;;0.00;0.00;;;17.20;99.90;;;;;;5037845;28;20060;-79
2022/09/08 11:24:04;;;;;;;0.00;0.00;;;17.20;99.90;;;;;;5021289;28;20049;-79
2022/09/08 11:26:43;;;;;;;0.00;0.00;;;17.20;99.90;;;;;;5021271;28;20072;-79
2022/09/08 11:29:13;;;;;;;0.35;0.10;;;17.20;99.90;;;;;;5037509;28;20099;-79
2022/09/08 11:31:42;;;;;;;0.00;0.00;;;17.20;99.90;;;;;;5037588;28;20085;-79
2022/09/08 11:34:22;;;;;;;0.00;0.00;;;17.30;99.90;;;;;;5036898;28;20088;-79
2022/09/08 11:36:50;;;;;;;0.00;0.00;;;17.30;99.90;;;;;;5020911;28;20057;-80
2022/09/08 11:39:44;;;;;;;0.00;0.00;;;17.20;99.90;;;;;;5020551;28;20060;-79
2022/09/08 11:42:34;;;;;;;0.00;0.00;;;17.20;99.90;;;;;;5037364;28;20084;-79
2022/09/08 11:45:33;;;;;;;0.00;0.00;;;17.30;99.90;;;;;;5037005;28;20148;-80
2022/09/08 11:48:17;;;;;;;0.03;0.00;;;17.30;99.90;;;;;;5035867;28;20049;-80
2022/09/08 11:51:35;;;;;;;0.10;0.00;;;17.40;99.90;;;;;;5020307;28;20094;-80
2022/09/08 11:54:31;;;;;;;0.00;0.00;;;17.40;99.90;;;;;;4997387;28;20054;-80
2022/09/08 11:57:31;;;;;;;0.00;0.00;;;17.40;99.90;;;;;;4981326;28;20135;-80
2022/09/08 12:00:07;;;;;;;0.00;0.00;;;17.50;99.90;;;;;;4997742;28;20042;-80
2022/09/08 12:03:02;;;;;;;0.00;0.00;;;17.60;99.90;;;;;;4981159;28;20050;-80
2022/09/08 12:05:52;;;;;;;0.00;0.00;;;17.70;99.90;;;;;;4981158;28;20038;-80
2022/09/08 12:08:30;;;;;;;0.00;0.00;;;17.70;99.90;;;;;;4997061;28;20049;-80
2022/09/08 12:11:19;;;;;;;0.00;0.00;;;17.80;99.90;;;;;;4981078;28;20497;-80
2022/09/08 12:13:50;;;;;;;0.10;0.10;;;17.80;99.90;;;;;;4997517;28;20053;-80
2022/09/08 12:16:42;;;;;;;0.00;0.00;;;17.80;99.90;;;;;;4997336;28;20097;-80
2022/09/08 12:19:16;;;;;;;0.00;0.00;;;17.90;99.90;;;;;;4980974;28;20145;-80
2022/09/08 12:22:16;;;;;;;0.10;0.03;;;17.90;99.90;;;;;;4997363;28;20053;-80
2022/09/08 12:25:33;;;;;;;0.00;0.00;;;18.00;99.90;;;;;;4997039;28;20441;-80
2022/09/08 12:28:19;;;;;;;0.10;0.10;;;18.10;99.90;;;;;;4957836;28;20407;-80
2022/09/08 12:31:05;;;;;;;0.15;0.10;;;18.10;99.90;;;;;;5049483;28;20045;-80
2022/09/08 12:33:44;;;;;;;0.00;0.00;;;18.20;99.90;;;;;;5016313;28;20045;-80
2022/09/08 12:36:22;;;;;;;0.00;0.00;;;18.30;99.90;;;;;;5015992;28;20529;-80
2022/09/08 12:39:14;;;;;;;0.00;0.00;;;18.40;99.90;;;;;;5049411;28;20482;-80
2022/09/08 12:41:45;;;;;;;0.00;0.00;;;18.40;99.90;;;;;;4999222;28;20462;-80
2022/09/08 12:44:30;;;;;;;0.00;0.00;;;18.50;99.90;;;;;;4999673;28;20050;-80
2022/09/08 12:47:30;;;;;;;0.00;0.00;;;18.60;99.90;;;;;;5016211;28;20049;-80
2022/09/08 12:50:02;;;;;;;0.15;0.15;;;18.60;99.90;;;;;;4974041;28;20074;-80
2022/09/08 12:52:39;;;;;;;0.00;0.00;;;18.60;99.90;;;;;;4973193;28;20117;-80
2022/09/08 12:55:35;;;;;;;1.10;0.20;;;18.70;99.90;;;;;;4973398;28;20054;-80
2022/09/08 12:58:01;;;;;;;0.00;0.00;;;18.70;99.90;;;;;;4973535;28;20054;-80
2022/09/08 13:00:50;;;;;;;0.52;0.17;;;18.70;99.90;;;;;;4941552;28;20098;-80
2022/09/08 13:03:24;;;;;;;0.00;0.00;;;18.70;99.90;;;;;;4996289;28;20222;-80
2022/09/08 13:05:55;;;;;;;0.10;0.10;;;18.70;99.90;;;;;;4979547;28;20402;-80
2022/09/08 13:08:26;;;;;;;0.13;0.13;;;18.80;99.90;;;;;;4979723;28;20285;-80
2022/09/08 13:11:00;;;;;;;0.00;0.00;;;18.70;99.90;;;;;;4979612;28;20093;-80
2022/09/08 13:13:37;;;;;;;0.00;0.00;;;18.80;99.90;;;;;;5012642;28;20079;-80
2022/09/08 13:16:37;;;;;;;0.00;0.00;;;18.80;99.90;;;;;;4979404;28;20052;-80
2022/09/08 13:19:15;;;;;;;0.00;0.00;;;19.00;99.90;;;;;;4976510;28;20072;-80
2022/09/08 13:21:53;;;;;;;0.00;0.00;;;19.00;99.90;;;;;;4976783;28;20102;-81
2022/09/08 13:24:38;;;;;;;0.00;0.00;;;19.00;99.90;;;;;;4992694;28;20053;-80
2022/09/08 13:27:16;;;;;;;0.00;0.00;;;19.00;99.90;;;;;;5025582;28;20049;-80
2022/09/08 13:30:18;;;;;;;0.00;0.00;;;19.10;99.90;;;;;;5015525;28;20107;-80
2022/09/08 13:33:09;;;;;;;0.00;0.00;;;19.10;99.90;;;;;;5015653;28;20048;-81
2022/09/08 13:36:05;;;;;;;0.00;0.00;;;19.10;99.90;;;;;;5030517;28;20144;-80
2022/09/08 13:39:07;;;;;;;0.43;0.17;;;19.20;99.90;;;;;;5015478;28;20050;-80
2022/09/08 13:42:11;;;;;;;0.00;0.00;;;19.30;99.90;;;;;;5031719;28;20060;-80
2022/09/08 13:45:02;;;;;;;0.00;0.00;;;19.30;99.90;;;;;;5032126;28;20061;-81